Terminal Aerodrome Forecast
Issued by NWS

Home | Current Version | Previous Version | Text Only | Print | Product List | Glossary On
Versions: 1 2 3 4 5 6 7 8 9 10 11 12 13 14
000
FTPA31 PHFO 010500
TAFMKK
TAF
PHMK 010535Z 0106/0206 04010G20KT P6SM SCT025 SCT050
     FM011000 05010KT P6SM SCT025 SCT050
     FM011800 05010G20KT P6SM SCT025 SCT050=

USA.gov is the U.S. government's official web portal to all federal, state and local government web resources and services.